Time;durP1;ratioP1;P1;durP2;ratioP2;P2;SDS_P1;SDS_P2;PMS_P1;PMS_P2;Temp;Humidity;BMP_temperature;BMP_pressure;BME280_temperature;BME280_humidity;BME280_pressure;Samples;Min_cycle;Max_cycle;Signal;HPM_P1;HPM_P2
2022/04/11 00:01:56;;;;;;;9.37;6.20;;;9.80;1.00;;;;;;5052631;28;20678;-63
2022/04/11 00:04:22;;;;;;;8.83;5.60;;;9.80;1.00;;;;;;5052912;28;20655;-63
2022/04/11 00:06:48;;;;;;;8.13;6.00;;;9.70;1.00;;;;;;5052945;28;20191;-63
2022/04/11 00:09:13;;;;;;;9.50;5.90;;;9.70;1.00;;;;;;5053046;28;20561;-64
2022/04/11 00:11:39;;;;;;;10.07;6.73;;;9.70;1.00;;;;;;5052846;28;20651;-63
2022/04/11 00:14:05;;;;;;;6.40;5.80;;;9.70;1.00;;;;;;5052498;28;20187;-63
2022/04/11 00:16:31;;;;;;;6.93;5.90;;;9.60;1.00;;;;;;5052335;28;20209;-64
2022/04/11 00:18:57;;;;;;;6.97;6.20;;;9.60;1.00;;;;;;5051586;28;20649;-64
2022/04/11 00:21:22;;;;;;;9.43;5.70;;;9.60;10.80;;;;;;5053062;28;20169;-63
2022/04/11 00:23:48;;;;;;;10.57;6.10;;;9.60;12.20;;;;;;5052486;28;20185;-64
2022/04/11 00:26:14;;;;;;;8.90;5.77;;;9.60;1.00;;;;;;5052480;28;20173;-63
2022/04/11 00:28:40;;;;;;;7.20;5.93;;;9.60;11.60;;;;;;5052870;28;20266;-65
2022/04/11 00:31:07;;;;;;;11.37;6.63;;;9.60;1.00;;;;;;5052495;28;20306;-63
2022/04/11 00:33:32;;;;;;;10.07;7.53;;;9.60;1.00;;;;;;5052575;28;20626;-63
2022/04/11 00:35:58;;;;;;;7.53;5.87;;;9.60;59.50;;;;;;5052559;28;20306;-63
2022/04/11 00:38:23;;;;;;;7.87;6.07;;;9.60;1.00;;;;;;5052578;28;20169;-64
2022/04/11 00:40:49;;;;;;;6.13;5.47;;;9.60;1.00;;;;;;5052583;28;20264;-63
2022/04/11 00:43:35;;;;;;;5.67;5.03;;;9.60;1.00;;;;;;5052541;28;20178;-64
2022/04/11 00:46:02;;;;;;;7.87;5.67;;;9.50;1.00;;;;;;5052189;28;20212;-64
2022/04/11 00:48:28;;;;;;;6.57;5.43;;;9.50;20.60;;;;;;5052481;28;20169;-64
2022/04/11 00:51:00;;;;;;;6.50;5.00;;;9.40;34.00;;;;;;5052629;28;20177;-63
2022/04/11 00:53:28;;;;;;;6.67;5.60;;;9.40;39.40;;;;;;5052303;28;20307;-63
2022/04/11 00:55:56;;;;;;;5.93;5.33;;;9.40;93.20;;;;;;5052155;28;20232;-64
2022/04/11 00:58:22;;;;;;;8.90;5.73;;;9.40;99.90;;;;;;5052479;28;20174;-63
2022/04/11 01:00:48;;;;;;;6.00;5.37;;;9.30;99.90;;;;;;5052060;28;20177;-64
2022/04/11 01:03:14;;;;;;;6.33;5.43;;;9.30;99.90;;;;;;5052400;28;20509;-63
2022/04/11 01:05:41;;;;;;;5.43;4.80;;;9.30;99.90;;;;;;5052264;28;20177;-64
2022/04/11 01:08:09;;;;;;;8.03;5.30;;;9.20;99.90;;;;;;5053189;28;20193;-65
2022/04/11 01:10:34;;;;;;;5.67;4.93;;;9.20;99.90;;;;;;5056274;28;20173;-63
2022/04/11 01:13:00;;;;;;;7.53;5.50;;;9.20;99.90;;;;;;5055710;28;20162;-62
2022/04/11 01:15:26;;;;;;;6.40;5.07;;;9.20;1.00;;;;;;5055377;28;20203;-63
2022/04/11 01:17:52;;;;;;;8.27;5.40;;;9.10;1.00;;;;;;5055828;28;20177;-64
2022/04/11 01:20:19;;;;;;;8.07;5.30;;;9.10;1.00;;;;;;5055912;28;20245;-64
2022/04/11 01:22:45;;;;;;;8.23;5.67;;;9.10;1.00;;;;;;5055591;28;20169;-64
2022/04/11 01:25:12;;;;;;;8.77;5.17;;;9.00;1.00;;;;;;5055476;28;20169;-63
2022/04/11 01:27:38;;;;;;;8.93;5.70;;;9.00;1.00;;;;;;5055533;28;20197;-63
2022/04/11 01:30:08;;;;;;;8.10;5.53;;;8.90;99.90;;;;;;5055466;28;20177;-64
2022/04/11 01:32:35;;;;;;;8.17;4.90;;;8.80;99.90;;;;;;5055713;28;20200;-63
2022/04/11 01:35:01;;;;;;;6.67;5.57;;;8.80;99.90;;;;;;5055413;28;20204;-64
2022/04/11 01:37:27;;;;;;;6.30;5.20;;;8.80;99.90;;;;;;5055883;28;20249;-63
2022/04/11 01:39:53;;;;;;;6.60;5.27;;;8.80;99.90;;;;;;5055510;28;20672;-63
2022/04/11 01:42:18;;;;;;;7.30;5.13;;;8.70;1.00;;;;;;5054979;28;20181;-64
2022/04/11 01:44:44;;;;;;;7.27;5.33;;;8.70;1.00;;;;;;5055351;28;20191;-63
2022/04/11 01:47:10;;;;;;;7.17;5.53;;;8.70;1.00;;;;;;5055388;28;20523;-64
2022/04/11 01:49:36;;;;;;;9.20;5.40;;;8.60;1.00;;;;;;5055150;28;20234;-63
2022/04/11 01:52:02;;;;;;;6.67;5.30;;;8.60;99.90;;;;;;5055158;28;20202;-63
2022/04/11 01:54:27;;;;;;;5.73;5.17;;;8.50;99.90;;;;;;5055070;28;20272;-63
2022/04/11 01:56:53;;;;;;;11.80;5.20;;;8.50;99.90;;;;;;5054443;28;20239;-64
2022/04/11 01:59:18;;;;;;;7.70;4.90;;;8.40;1.00;;;;;;5055399;28;20708;-63
2022/04/11 02:01:44;;;;;;;5.57;4.50;;;8.40;1.00;;;;;;5055117;28;20550;-64
2022/04/11 02:04:10;;;;;;;7.13;5.23;;;8.40;1.00;;;;;;5054761;28;20165;-63
2022/04/11 02:06:36;;;;;;;5.60;4.83;;;8.30;1.00;;;;;;5054894;28;20173;-63
2022/04/11 02:09:02;;;;;;;7.03;4.83;;;8.30;1.00;;;;;;5054735;28;20173;-63
2022/04/11 02:11:28;;;;;;;7.40;5.17;;;8.30;1.00;;;;;;5054398;28;20702;-64
2022/04/11 02:13:53;;;;;;;6.27;5.10;;;8.30;18.80;;;;;;5054574;28;20189;-64
2022/04/11 02:16:19;;;;;;;4.93;4.50;;;8.40;1.00;;;;;;5054837;28;20201;-63
2022/04/11 02:18:44;;;;;;;5.17;4.50;;;8.30;1.00;;;;;;5054549;28;20240;-63
2022/04/11 02:21:10;;;;;;;5.00;4.53;;;8.30;1.00;;;;;;5054863;28;20169;-64
2022/04/11 02:23:36;;;;;;;5.33;4.53;;;8.30;1.00;;;;;;5054331;28;20580;-64
2022/04/11 02:26:02;;;;;;;8.57;4.70;;;8.30;1.00;;;;;;5054364;28;20177;-64
2022/04/11 02:28:28;;;;;;;5.20;4.70;;;8.20;1.00;;;;;;5054761;28;20172;-63
2022/04/11 02:30:53;;;;;;;7.97;5.00;;;8.20;1.00;;;;;;5054439;28;20181;-63
2022/04/11 02:33:19;;;;;;;6.23;5.10;;;8.10;72.20;;;;;;5054286;28;20173;-64
2022/04/11 02:35:45;;;;;;;9.33;5.37;;;8.10;99.90;;;;;;5054442;28;20208;-63
2022/04/11 02:38:11;;;;;;;8.23;5.13;;;8.10;99.90;;;;;;5054353;28;20249;-63
2022/04/11 02:40:36;;;;;;;5.40;4.60;;;8.10;99.90;;;;;;5053669;28;20173;-63
2022/04/11 02:43:02;;;;;;;8.50;5.00;;;8.20;99.90;;;;;;5054092;28;20560;-64
2022/04/11 02:45:28;;;;;;;6.30;4.80;;;8.10;1.00;;;;;;5054231;28;20313;-63
2022/04/11 02:47:53;;;;;;;6.73;4.53;;;8.10;1.00;;;;;;5054033;28;20529;-62
2022/04/11 02:50:19;;;;;;;10.20;6.47;;;7.90;1.00;;;;;;5054105;28;20207;-64
2022/04/11 02:52:45;;;;;;;7.83;6.13;;;7.80;1.00;;;;;;5053776;28;20651;-63
2022/04/11 02:55:11;;;;;;;11.53;5.67;;;7.80;99.90;;;;;;5053271;28;20180;-63
2022/04/11 02:57:38;;;;;;;8.77;5.77;;;7.70;1.00;;;;;;5053990;28;20177;-64
2022/04/11 03:00:12;;;;;;;9.17;5.50;;;7.60;1.00;;;;;;5054118;28;20197;-64
2022/04/11 03:02:38;;;;;;;8.93;6.17;;;7.50;99.90;;;;;;5053741;28;20719;-63
2022/04/11 03:05:04;;;;;;;8.40;5.90;;;7.40;99.90;;;;;;5053922;28;20265;-63
2022/04/11 03:07:30;;;;;;;9.30;6.07;;;7.50;1.00;;;;;;5053650;28;20264;-63
2022/04/11 03:09:55;;;;;;;10.97;7.60;;;7.40;99.90;;;;;;5053371;28;20259;-64
2022/04/11 03:12:22;;;;;;;8.40;6.83;;;7.30;1.00;;;;;;5053411;28;20180;-64
2022/04/11 03:14:51;;;;;;;10.37;6.70;;;7.20;32.70;;;;;;5053643;28;20218;-63
2022/04/11 03:17:17;;;;;;;9.17;7.00;;;7.10;99.90;;;;;;5053173;28;20209;-64
2022/04/11 03:19:44;;;;;;;11.70;7.47;;;7.00;99.90;;;;;;5053484;28;20248;-63
2022/04/11 03:22:10;;;;;;;11.00;7.57;;;6.90;99.90;;;;;;5053087;28;20678;-63
2022/04/11 03:24:36;;;;;;;8.30;7.50;;;6.80;1.00;;;;;;5052899;28;20655;-64
2022/04/11 03:27:02;;;;;;;13.30;7.60;;;6.70;1.00;;;;;;5053243;28;20173;-64
2022/04/11 03:29:28;;;;;;;13.17;7.33;;;6.70;1.00;;;;;;5053427;28;20188;-63
2022/04/11 03:31:53;;;;;;;17.80;8.27;;;6.70;1.00;;;;;;5052587;28;20628;-63
2022/04/11 03:34:19;;;;;;;14.17;8.03;;;6.70;1.00;;;;;;5052622;28;20318;-63
2022/04/11 03:36:45;;;;;;;10.37;7.93;;;6.60;1.00;;;;;;5052885;28;20303;-63
2022/04/11 03:39:10;;;;;;;9.57;7.70;;;6.50;1.00;;;;;;5052878;28;20173;-63
2022/04/11 03:41:36;;;;;;;10.93;7.77;;;6.40;1.00;;;;;;5052749;28;20181;-63
2022/04/11 03:44:02;;;;;;;10.80;7.60;;;6.40;1.00;;;;;;5053092;28;20231;-63
2022/04/11 03:46:28;;;;;;;10.07;7.50;;;6.30;1.00;;;;;;5052652;28;20165;-63
2022/04/11 03:48:54;;;;;;;12.77;7.80;;;6.30;1.00;;;;;;5052795;28;20640;-62
2022/04/11 03:51:20;;;;;;;11.20;7.50;;;6.20;1.00;;;;;;5052687;28;20508;-64
2022/04/11 03:53:47;;;;;;;12.20;7.97;;;6.20;1.00;;;;;;5052103;28;20188;-64
2022/04/11 03:56:14;;;;;;;11.73;8.20;;;6.20;1.00;;;;;;5052444;28;20245;-63
2022/04/11 03:58:40;;;;;;;10.37;7.90;;;6.10;1.00;;;;;;5052800;28;20181;-62
2022/04/11 04:01:06;;;;;;;19.90;8.53;;;6.10;1.00;;;;;;5052839;28;20173;-62
2022/04/11 04:03:32;;;;;;;14.47;8.37;;;6.10;1.00;;;;;;5052544;28;20173;-62
2022/04/11 04:05:57;;;;;;;13.70;8.03;;;6.10;1.00;;;;;;5052654;28;20173;-63
2022/04/11 04:08:23;;;;;;;11.13;7.43;;;6.00;1.00;;;;;;5052569;28;20510;-63
2022/04/11 04:10:49;;;;;;;14.80;8.13;;;6.00;1.00;;;;;;5052359;28;20591;-65
2022/04/11 04:13:14;;;;;;;13.87;7.47;;;5.90;1.00;;;;;;5051947;28;20173;-64
2022/04/11 04:15:40;;;;;;;13.20;7.40;;;5.90;1.00;;;;;;5052572;28;20208;-65
2022/04/11 04:18:06;;;;;;;13.27;7.83;;;5.90;1.00;;;;;;5052755;28;20169;-63
2022/04/11 04:20:31;;;;;;;16.20;8.13;;;5.90;1.00;;;;;;5052718;28;20199;-64
2022/04/11 04:22:57;;;;;;;16.60;8.20;;;5.90;1.00;;;;;;5052183;28;20268;-64
2022/04/11 04:25:23;;;;;;;17.70;8.83;;;5.80;1.00;;;;;;5052447;28;20173;-63
2022/04/11 04:27:49;;;;;;;17.70;8.70;;;5.80;1.00;;;;;;5051784;28;20170;-63
2022/04/11 04:30:14;;;;;;;19.33;8.17;;;5.70;1.00;;;;;;5052250;28;20202;-63
2022/04/11 04:32:41;;;;;;;12.73;8.07;;;5.70;1.00;;;;;;5052462;28;20181;-63
2022/04/11 04:35:08;;;;;;;19.27;8.00;;;5.70;1.00;;;;;;5051994;28;20173;-63
2022/04/11 04:37:34;;;;;;;13.17;8.63;;;5.70;1.00;;;;;;5051974;28;20178;-64
2022/04/11 04:40:00;;;;;;;15.70;8.67;;;5.70;1.00;;;;;;5051989;28;20284;-64
2022/04/11 04:42:28;;;;;;;14.77;8.17;;;5.70;1.00;;;;;;5052345;28;20173;-63
2022/04/11 04:44:54;;;;;;;13.17;7.57;;;5.70;1.00;;;;;;5055812;28;20220;-63
2022/04/11 04:47:20;;;;;;;14.07;8.47;;;5.60;1.00;;;;;;5056105;28;20632;-63
2022/04/11 04:49:46;;;;;;;14.13;7.93;;;5.60;1.00;;;;;;5055879;28;20205;-63
2022/04/11 04:52:13;;;;;;;14.07;7.40;;;5.60;1.00;;;;;;5055697;28;20181;-63
2022/04/11 04:54:38;;;;;;;13.77;7.63;;;5.60;1.00;;;;;;5055517;28;20193;-62
2022/04/11 04:57:05;;;;;;;13.57;7.27;;;5.60;1.00;;;;;;5054903;28;20232;-63
2022/04/11 04:59:30;;;;;;;17.53;7.53;;;5.60;1.00;;;;;;5055545;28;20234;-64
2022/04/11 05:01:56;;;;;;;14.30;7.77;;;5.70;1.00;;;;;;5055620;28;20537;-62
2022/04/11 05:04:22;;;;;;;8.13;6.67;;;5.70;1.00;;;;;;5055902;28;20176;-63
2022/04/11 05:06:48;;;;;;;10.37;6.90;;;5.80;1.00;;;;;;5054988;28;20169;-64
2022/04/11 05:09:13;;;;;;;12.17;6.73;;;5.90;1.00;;;;;;5055829;28;20531;-62
2022/04/11 05:11:39;;;;;;;18.07;7.37;;;6.00;1.00;;;;;;5055219;28;20180;-65
2022/04/11 05:14:05;;;;;;;9.27;6.07;;;6.10;1.00;;;;;;5055177;28;20177;-63
2022/04/11 05:16:31;;;;;;;12.37;6.17;;;6.40;1.00;;;;;;5055402;28;20209;-63
2022/04/11 05:18:56;;;;;;;15.20;5.77;;;7.10;1.00;;;;;;5055202;28;20207;-63
2022/04/11 05:21:22;;;;;;;8.57;4.20;;;8.00;1.00;;;;;;5054986;28;20177;-64
2022/04/11 05:23:48;;;;;;;5.83;4.00;;;8.70;99.90;;;;;;5055021;28;20165;-63
2022/04/11 05:26:14;;;;;;;7.83;4.60;;;9.30;1.00;;;;;;5054869;28;20177;-63
2022/04/11 05:28:39;;;;;;;8.27;3.77;;;10.00;99.90;;;;;;5055097;28;20165;-63
2022/04/11 05:31:05;;;;;;;7.43;3.93;;;10.70;1.00;;;;;;5054935;28;20170;-65
2022/04/11 05:33:30;;;;;;;9.43;3.67;;;11.10;1.00;;;;;;5054425;28;20506;-64
2022/04/11 05:35:56;;;;;;;4.87;3.53;;;11.30;1.00;;;;;;5054745;28;20296;-63
2022/04/11 05:38:22;;;;;;;7.77;3.83;;;11.60;1.00;;;;;;5055305;28;20688;-63
2022/04/11 05:40:48;;;;;;;4.90;3.37;;;12.30;99.90;;;;;;5054374;28;20173;-64
2022/04/11 05:43:14;;;;;;;5.27;3.20;;;12.80;99.90;;;;;;5054548;28;20234;-63
2022/04/11 05:45:43;;;;;;;4.93;3.63;;;12.60;99.90;;;;;;5054283;28;20276;-64
2022/04/11 05:48:10;;;;;;;5.63;3.60;;;11.90;99.90;;;;;;5054551;28;20177;-64
2022/04/11 05:50:35;;;;;;;5.87;3.40;;;11.30;99.90;;;;;;5054143;28;20173;-63
2022/04/11 05:53:01;;;;;;;3.60;3.23;;;10.90;99.90;;;;;;5054256;28;20204;-63
2022/04/11 05:55:28;;;;;;;4.27;3.30;;;10.60;99.90;;;;;;5053275;28;20228;-63
2022/04/11 05:57:54;;;;;;;4.60;3.60;;;10.70;99.90;;;;;;5054342;28;20215;-63
2022/04/11 06:00:20;;;;;;;5.23;3.67;;;10.90;99.90;;;;;;5054537;28;20290;-63
2022/04/11 06:02:46;;;;;;;5.10;3.67;;;11.10;99.90;;;;;;5053807;28;20564;-62
2022/04/11 06:05:11;;;;;;;5.47;3.50;;;11.30;99.90;;;;;;5054198;28;20226;-64
2022/04/11 06:07:37;;;;;;;5.07;3.67;;;11.70;99.90;;;;;;5054225;28;20263;-63
2022/04/11 06:10:04;;;;;;;6.53;3.60;;;11.90;99.90;;;;;;5053905;28;20629;-62
2022/04/11 06:12:29;;;;;;;9.53;3.40;;;12.00;99.90;;;;;;5054091;28;20177;-63
2022/04/11 06:14:56;;;;;;;7.30;3.87;;;12.10;99.90;;;;;;5054216;28;20227;-64
2022/04/11 06:17:25;;;;;;;4.60;3.50;;;12.40;99.90;;;;;;5053737;28;20690;-63
2022/04/11 06:19:55;;;;;;;7.33;3.40;;;12.90;99.90;;;;;;5053832;28;20169;-64
2022/04/11 06:22:21;;;;;;;6.57;3.87;;;13.30;99.90;;;;;;5054221;28;20184;-64
2022/04/11 06:24:48;;;;;;;8.13;3.43;;;13.80;99.90;;;;;;5053656;28;20181;-63
2022/04/11 06:27:15;;;;;;;4.60;3.30;;;13.90;99.90;;;;;;5053764;28;20173;-64
2022/04/11 06:29:41;;;;;;;7.00;3.80;;;14.00;99.90;;;;;;5053744;28;20169;-63
2022/04/11 06:32:07;;;;;;;6.17;3.37;;;14.90;99.90;;;;;;5053161;28;20689;-63
2022/04/11 06:34:36;;;;;;;5.47;3.10;;;15.20;99.90;;;;;;5053235;28;20166;-63
2022/04/11 06:37:03;;;;;;;4.30;3.70;;;15.00;99.90;;;;;;5053803;28;20228;-63
2022/04/11 06:39:28;;;;;;;5.27;3.57;;;15.30;99.90;;;;;;5053378;28;20177;-65
2022/04/11 06:41:54;;;;;;;5.23;3.60;;;15.40;99.90;;;;;;5053716;28;20250;-64
2022/04/11 06:44:20;;;;;;;6.57;4.07;;;16.50;99.90;;;;;;5052768;28;20185;-65
2022/04/11 06:46:46;;;;;;;4.70;3.53;;;16.80;99.90;;;;;;5053647;28;20184;-64
2022/04/11 06:49:11;;;;;;;5.97;3.50;;;17.10;99.90;;;;;;5053092;28;20177;-63
2022/04/11 06:51:37;;;;;;;5.43;3.17;;;16.80;99.90;;;;;;5053837;28;20390;-64
2022/04/11 06:54:02;;;;;;;7.30;3.47;;;17.00;99.90;;;;;;5058993;28;20635;-65
2022/04/11 06:56:28;;;;;;;7.57;3.20;;;17.40;99.90;;;;;;5068799;28;20662;-65
2022/04/11 06:58:54;;;;;;;4.67;2.90;;;17.60;96.80;;;;;;5059590;28;20169;-64
2022/04/11 07:01:20;;;;;;;5.00;2.83;;;18.20;90.90;;;;;;5057471;28;20685;-63
2022/04/11 07:03:45;;;;;;;5.10;2.83;;;17.10;93.30;;;;;;5061979;28;20185;-64
2022/04/11 07:06:11;;;;;;;3.67;2.80;;;16.50;92.90;;;;;;5070653;28;20161;-63
2022/04/11 07:08:37;;;;;;;5.10;3.23;;;15.60;97.20;;;;;;5062746;28;20648;-62
2022/04/11 07:11:04;;;;;;;4.50;3.17;;;15.80;97.30;;;;;;5059866;28;20227;-64
2022/04/11 07:13:30;;;;;;;8.93;3.30;;;16.00;95.80;;;;;;5067434;28;20184;-64
2022/04/11 07:15:56;;;;;;;4.70;2.60;;;15.60;99.80;;;;;;5066860;28;20257;-63
2022/04/11 07:18:25;;;;;;;5.73;2.80;;;16.20;92.90;;;;;;5058297;28;20204;-64
2022/04/11 07:20:51;;;;;;;2.90;2.70;;;16.40;94.50;;;;;;5065355;28;20263;-64
2022/04/11 07:23:17;;;;;;;4.97;2.57;;;16.70;90.60;;;;;;5072056;28;20323;-63
2022/04/11 07:25:43;;;;;;;2.70;2.50;;;16.50;90.20;;;;;;5068572;28;20597;-63
2022/04/11 07:28:08;;;;;;;2.93;2.73;;;16.10;90.80;;;;;;5071194;28;20259;-64
2022/04/11 07:30:34;;;;;;;5.33;2.50;;;15.50;94.50;;;;;;5066542;28;20548;-64
2022/04/11 07:33:00;;;;;;;3.63;2.80;;;16.20;92.50;;;;;;5065402;28;20203;-64
2022/04/11 07:35:26;;;;;;;4.50;2.60;;;16.80;88.80;;;;;;5061284;28;20267;-64
2022/04/11 07:37:51;;;;;;;3.97;3.07;;;17.20;81.70;;;;;;5061008;28;20267;-65
2022/04/11 07:40:17;;;;;;;5.37;3.10;;;17.90;76.20;;;;;;5065253;28;20177;-65
2022/04/11 07:42:43;;;;;;;4.10;2.60;;;18.40;64.80;;;;;;5064420;28;20207;-64
2022/04/11 07:45:09;;;;;;;4.40;2.72;;;18.80;57.90;;;;;;5064531;28;20204;-63
2022/04/11 07:47:34;;;;;;;4.65;2.60;;;17.80;60.00;;;;;;5062246;28;20204;-63
2022/04/11 07:50:00;;;;;;;4.10;2.83;;;17.40;62.20;;;;;;5059162;28;20606;-65
2022/04/11 07:52:26;;;;;;;5.25;3.00;;;17.30;62.60;;;;;;5060266;28;20181;-65
2022/04/11 07:54:52;;;;;;;5.13;3.28;;;17.50;90.10;;;;;;5063146;28;20603;-65
2022/04/11 07:57:18;;;;;;;5.03;2.93;;;17.50;62.50;;;;;;5064380;28;20741;-64
2022/04/11 07:59:44;;;;;;;4.90;3.00;;;17.70;61.40;;;;;;5067917;28;20267;-64
2022/04/11 08:02:09;;;;;;;5.60;3.20;;;17.80;59.00;;;;;;5067677;28;20181;-64
2022/04/11 08:04:35;;;;;;;5.60;3.03;;;18.10;55.30;;;;;;5068886;28;20172;-63
2022/04/11 08:07:02;;;;;;;4.80;3.03;;;17.50;55.80;;;;;;5061707;28;20184;-64
2022/04/11 08:09:29;;;;;;;4.60;2.60;;;17.00;57.50;;;;;;5055705;28;20189;-64
2022/04/11 08:11:55;;;;;;;4.87;3.13;;;16.40;64.20;;;;;;5060213;28;20200;-64
2022/04/11 08:14:20;;;;;;;5.17;3.30;;;16.70;64.50;;;;;;5066132;28;20564;-64
2022/04/11 08:16:47;;;;;;;4.43;2.90;;;17.30;61.80;;;;;;5057603;28;20671;-65
2022/04/11 08:19:12;;;;;;;4.35;2.83;;;17.60;59.60;;;;;;5072724;28;20169;-65
2022/04/11 08:21:38;;;;;;;7.18;3.13;;;18.40;54.90;;;;;;5073413;28;20662;-64
2022/04/11 08:24:04;;;;;;;4.97;2.63;;;18.70;49.10;;;;;;5060951;28;20180;-64
2022/04/11 08:26:30;;;;;;;6.95;2.67;;;18.90;48.30;;;;;;5058083;28;20180;-67
2022/04/11 08:28:55;;;;;;;3.50;2.65;;;19.20;42.30;;;;;;5068804;28;20685;-65
2022/04/11 08:31:21;;;;;;;5.82;2.72;;;19.40;39.80;;;;;;5075520;28;20181;-64
2022/04/11 08:33:46;;;;;;;3.47;2.80;;;19.20;34.50;;;;;;5062906;28;20184;-65
2022/04/11 08:36:12;;;;;;;3.15;2.60;;;18.80;36.50;;;;;;5064104;28;20236;-65
2022/04/11 08:38:38;;;;;;;4.10;2.95;;;18.90;37.40;;;;;;5074997;28;20172;-65
2022/04/11 08:41:04;;;;;;;3.58;2.83;;;18.70;37.40;;;;;;5074174;28;20180;-64
2022/04/11 08:43:32;;;;;;;4.53;2.72;;;18.40;39.30;;;;;;5064892;28;20176;-64
2022/04/11 08:46:03;;;;;;;4.03;2.88;;;18.40;42.90;;;;;;5071362;28;20531;-65
2022/04/11 08:48:28;;;;;;;4.50;2.58;;;19.10;37.10;;;;;;5069524;28;20205;-64
2022/04/11 08:50:55;;;;;;;4.22;2.60;;;19.60;30.00;;;;;;5065275;28;20207;-64
2022/04/11 08:53:22;;;;;;;3.92;2.50;;;18.90;29.90;;;;;;5067421;28;20184;-65
2022/04/11 08:55:51;;;;;;;5.55;2.60;;;18.10;35.90;;;;;;5068805;28;20635;-64
2022/04/11 08:58:18;;;;;;;3.33;2.47;;;17.90;39.50;;;;;;5064340;28;20656;-65
2022/04/11 09:00:44;;;;;;;3.17;2.60;;;19.10;37.30;;;;;;5066799;28;20200;-65
2022/04/11 09:03:09;;;;;;;3.30;3.00;;;19.00;27.40;;;;;;5070593;28;20180;-66
2022/04/11 09:05:35;;;;;;;5.18;2.88;;;19.20;29.20;;;;;;5072639;28;20528;-64
2022/04/11 09:08:01;;;;;;;6.03;2.58;;;18.70;31.20;;;;;;5067553;28;20173;-65
2022/04/11 09:10:29;;;;;;;5.38;2.80;;;19.30;29.00;;;;;;5070853;28;20196;-65
2022/04/11 09:12:56;;;;;;;3.65;3.35;;;19.90;26.90;;;;;;5064736;28;20195;-63
2022/04/11 09:15:23;;;;;;;3.08;2.78;;;19.30;25.10;;;;;;5064140;28;20189;-65
2022/04/11 09:17:50;;;;;;;7.05;2.90;;;17.70;33.60;;;;;;5056469;28;20181;-64
2022/04/11 09:20:18;;;;;;;4.55;2.63;;;17.80;35.60;;;;;;5064438;28;20185;-64
2022/04/11 09:22:44;;;;;;;3.53;2.50;;;18.30;32.00;;;;;;5072524;28;20248;-64
2022/04/11 09:25:15;;;;;;;5.43;2.42;;;18.70;28.70;;;;;;5073381;28;20255;-64
2022/04/11 09:27:41;;;;;;;2.58;2.47;;;18.00;30.70;;;;;;5062058;28;20173;-63
2022/04/11 09:30:31;;;;;;;4.30;2.67;;;18.10;34.40;;;;;;5067768;28;20212;-65
2022/04/11 09:32:56;;;;;;;2.63;2.33;;;18.60;29.00;;;;;;5067969;28;20213;-65
2022/04/11 09:35:33;;;;;;;4.38;2.95;;;18.70;27.80;;;;;;5069565;28;20681;-65
2022/04/11 09:38:14;;;;;;;4.05;2.72;;;19.10;28.30;;;;;;5062386;28;20717;-64
2022/04/11 09:40:40;;;;;;;3.97;2.30;;;18.80;26.30;;;;;;5068925;28;20181;-63
2022/04/11 09:43:07;;;;;;;3.20;2.10;;;18.20;26.70;;;;;;5072484;28;20252;-65
2022/04/11 09:45:38;;;;;;;5.50;2.67;;;18.50;27.00;;;;;;5073523;28;20192;-64
2022/04/11 09:48:05;;;;;;;4.22;2.22;;;18.70;26.20;;;;;;5063976;28;20204;-64
2022/04/11 09:50:33;;;;;;;3.33;2.72;;;18.50;26.60;;;;;;5069536;28;20601;-65
2022/04/11 09:53:08;;;;;;;3.95;2.28;;;19.20;23.80;;;;;;5071560;28;20177;-64
2022/04/11 09:55:35;;;;;;;2.65;2.28;;;19.40;24.10;;;;;;5063167;28;20215;-64
2022/04/11 09:58:05;;;;;;;3.35;2.47;;;19.60;21.40;;;;;;5070430;28;20229;-63
2022/04/11 10:00:35;;;;;;;2.70;2.50;;;19.00;21.90;;;;;;5056947;28;20222;-65
2022/04/11 10:03:02;;;;;;;2.90;2.15;;;18.80;22.50;;;;;;5068324;28;20176;-62
2022/04/11 10:05:28;;;;;;;2.97;2.33;;;18.60;22.20;;;;;;5066420;28;20172;-64
2022/04/11 10:07:55;;;;;;;4.78;2.60;;;18.70;22.70;;;;;;5065941;28;20187;-63
2022/04/11 10:10:24;;;;;;;3.90;2.55;;;19.00;25.10;;;;;;5060762;28;20168;-64
2022/04/11 10:12:53;;;;;;;3.58;2.80;;;19.20;38.10;;;;;;5064047;28;20208;-65
2022/04/11 10:15:22;;;;;;;3.72;3.22;;;18.90;26.80;;;;;;5069662;28;20177;-65
2022/04/11 10:17:50;;;;;;;4.35;3.20;;;19.30;26.20;;;;;;5070577;28;20177;-64
2022/04/11 10:20:27;;;;;;;6.03;5.05;;;18.20;29.10;;;;;;5073461;28;20252;-64
2022/04/11 10:23:17;;;;;;;5.53;3.40;;;18.20;30.00;;;;;;5066457;28;20205;-63
2022/04/11 10:25:48;;;;;;;2.72;2.53;;;17.80;28.40;;;;;;5064396;28;20189;-62
2022/04/11 10:28:22;;;;;;;2.43;2.27;;;17.00;36.40;;;;;;5064404;28;20534;-63
2022/04/11 10:31:11;;;;;;;3.30;3.10;;;16.00;39.80;;;;;;5067898;28;20207;-62
2022/04/11 10:33:48;;;;;;;4.30;2.50;;;15.70;46.10;;;;;;5060049;28;20181;-63
2022/04/11 10:36:31;;;;;;;4.70;3.10;;;15.80;42.30;;;;;;5070005;28;20253;-62
2022/04/11 10:39:15;;;;;;;4.60;3.17;;;16.00;47.80;;;;;;5058071;28;20173;-64
2022/04/11 10:41:58;;;;;;;2.80;2.60;;;16.60;45.00;;;;;;5061899;28;20211;-63
2022/04/11 10:44:42;;;;;;;4.03;2.90;;;17.20;43.20;;;;;;5065872;28;20228;-64
2022/04/11 10:47:07;;;;;;;2.90;2.70;;;17.80;40.60;;;;;;5063462;28;20165;-64
2022/04/11 10:49:53;;;;;;;7.23;4.67;;;17.50;41.70;;;;;;5053437;28;20254;-64
2022/04/11 10:52:31;;;;;;;4.13;3.40;;;17.00;42.90;;;;;;5053053;28;20279;-62
2022/04/11 10:55:08;;;;;;;3.72;2.95;;;17.10;44.00;;;;;;5051696;28;20164;-64
2022/04/11 10:57:37;;;;;;;4.07;2.87;;;17.30;41.60;;;;;;5052713;28;20272;-63
2022/04/11 11:00:10;;;;;;;2.90;2.70;;;16.80;43.90;;;;;;5052611;28;20169;-63
2022/04/11 11:02:59;;;;;;;9.00;6.17;;;17.10;41.50;;;;;;5053390;28;20236;-63
2022/04/11 11:05:32;;;;;;;14.93;9.70;;;17.30;40.10;;;;;;5052774;28;20178;-63
2022/04/11 11:08:09;;;;;;;9.90;3.80;;;17.10;40.80;;;;;;5052897;28;20185;-64
2022/04/11 11:10:41;;;;;;;6.50;3.70;;;16.40;42.10;;;;;;5052929;28;20169;-64
2022/04/11 11:13:34;;;;;;;4.67;3.50;;;16.80;43.30;;;;;;5052331;28;20582;-64
2022/04/11 11:16:21;;;;;;;3.22;2.30;;;17.40;44.40;;;;;;5052218;28;20354;-64
2022/04/11 11:18:50;;;;;;;3.08;2.75;;;17.60;33.40;;;;;;5052694;28;20181;-63
2022/04/11 11:21:27;;;;;;;4.38;2.30;;;17.90;31.90;;;;;;5052801;28;20166;-63
2022/04/11 11:24:10;;;;;;;3.63;2.33;;;18.50;29.50;;;;;;5052459;28;20644;-63
2022/04/11 11:26:58;;;;;;;2.40;2.20;;;18.70;27.50;;;;;;5052565;28;20173;-64
2022/04/11 11:29:30;;;;;;;2.15;1.98;;;18.80;24.80;;;;;;5052609;28;20196;-63
2022/04/11 11:32:08;;;;;;;5.10;2.50;;;17.10;27.80;;;;;;5054342;28;20174;-63
2022/04/11 11:34:36;;;;;;;5.13;2.40;;;17.20;33.00;;;;;;5072576;28;20234;-63
2022/04/11 11:37:10;;;;;;;3.53;2.45;;;17.90;30.30;;;;;;5051950;28;20253;-63
2022/04/11 11:39:41;;;;;;;4.38;2.35;;;18.00;28.30;;;;;;5052172;28;20195;-63
2022/04/11 11:42:14;;;;;;;3.10;2.88;;;18.40;27.90;;;;;;5052400;28;20529;-63
2022/04/11 11:44:44;;;;;;;3.80;2.80;;;18.40;25.10;;;;;;5052134;28;20205;-63
2022/04/11 11:47:10;;;;;;;3.88;3.10;;;18.20;25.90;;;;;;5062040;28;20271;-63
2022/04/11 11:49:43;;;;;;;5.28;3.20;;;17.30;32.50;;;;;;5072134;28;20274;-65
2022/04/11 11:52:17;;;;;;;4.90;2.80;;;17.30;37.80;;;;;;5071129;28;20176;-65
2022/04/11 11:54:49;;;;;;;4.20;2.90;;;16.80;39.50;;;;;;5071875;28;20167;-63
2022/04/11 11:57:23;;;;;;;4.20;2.50;;;17.30;39.70;;;;;;5071003;28;20224;-63
2022/04/11 11:59:57;;;;;;;2.97;2.47;;;17.50;36.50;;;;;;5053880;28;20275;-65
2022/04/11 12:05:31;;;;;;;5.00;3.43;;;16.60;38.50;;;;;;5061892;28;20230;-65
2022/04/11 12:08:02;;;;;;;3.57;3.00;;;16.60;43.90;;;;;;5055507;28;20205;-64
2022/04/11 12:10:28;;;;;;;6.13;3.23;;;17.00;41.20;;;;;;5053666;28;20181;-64
2022/04/11 12:12:54;;;;;;;5.67;3.10;;;16.80;40.90;;;;;;5057834;28;20188;-63
2022/04/11 12:15:21;;;;;;;3.73;2.90;;;16.80;43.10;;;;;;5051151;28;20185;-64
2022/04/11 12:17:49;;;;;;;5.60;3.50;;;16.80;45.20;;;;;;5051809;28;20615;-65
2022/04/11 12:20:16;;;;;;;4.63;4.23;;;17.10;42.60;;;;;;5053160;28;20208;-65
2022/04/11 12:23:00;;;;;;;3.53;3.23;;;16.90;42.70;;;;;;5055123;28;20204;-63
2022/04/11 12:25:28;;;;;;;6.47;3.60;;;16.30;46.10;;;;;;5052344;28;20212;-64
2022/04/11 12:28:20;;;;;;;2.90;2.43;;;16.40;44.60;;;;;;5059151;28;20181;-63
2022/04/11 12:30:48;;;;;;;6.73;3.00;;;16.60;42.60;;;;;;5054724;28;20181;-63
2022/04/11 12:33:35;;;;;;;3.13;2.77;;;16.50;38.20;;;;;;5049450;28;20298;-65
2022/04/11 12:36:24;;;;;;;5.40;3.10;;;16.80;41.10;;;;;;5053097;28;20294;-64
2022/04/11 12:38:52;;;;;;;2.87;2.57;;;17.00;41.80;;;;;;5054631;28;20220;-63
2022/04/11 12:41:43;;;;;;;4.13;2.90;;;16.30;61.60;;;;;;5052252;28;20185;-63
2022/04/11 12:44:32;;;;;;;3.43;3.03;;;16.40;44.10;;;;;;5058739;28;20201;-63
2022/04/11 12:47:00;;;;;;;3.43;2.30;;;16.70;37.60;;;;;;5059166;28;20212;-63
2022/04/11 12:49:46;;;;;;;2.83;2.63;;;17.00;38.50;;;;;;5062205;28;20173;-65
2022/04/11 12:52:12;;;;;;;3.50;2.53;;;16.80;36.40;;;;;;5051629;28;20181;-64
2022/04/11 12:54:43;;;;;;;5.33;4.10;;;17.00;36.00;;;;;;5050872;28;20264;-63
2022/04/11 12:57:11;;;;;;;4.63;4.23;;;16.60;36.90;;;;;;5061137;28;20749;-63
2022/04/11 12:59:40;;;;;;;2.53;2.33;;;16.50;39.70;;;;;;5059928;28;20177;-63
2022/04/11 13:02:07;;;;;;;3.47;3.17;;;16.70;39.70;;;;;;5068813;28;20188;-64